createdAt,value
2023-04-15T00:02:23.049Z,5.00
2023-04-15T00:04:51.117Z,5.00
2023-04-15T00:07:19.086Z,5.00
2023-04-15T00:12:14.969Z,6.50
2023-04-15T00:14:42.895Z,6.00
2023-04-15T00:17:10.861Z,5.00
2023-04-15T00:19:38.752Z,2.00
2023-04-15T00:22:07.191Z,4.00
2023-04-15T00:24:35.170Z,4.00
2023-04-15T00:27:03.767Z,4.00
2023-04-15T00:29:32.371Z,6.00
2023-04-15T00:32:00.375Z,5.50
2023-04-15T00:34:29.025Z,5.50
2023-04-15T00:36:57.335Z,6.00
2023-04-15T00:39:25.251Z,5.00
2023-04-15T00:41:54.390Z,5.00
2023-04-15T00:44:22.401Z,6.00
2023-04-15T00:46:54.337Z,6.50
2023-04-15T00:49:23.187Z,8.00
2023-04-15T00:51:51.655Z,5.00
2023-04-15T00:54:19.640Z,7.50
2023-04-15T00:56:47.573Z,8.00
2023-04-15T00:59:16.849Z,7.00
2023-04-15T01:01:45.399Z,9.00
2023-04-15T01:04:14.179Z,10.00
2023-04-15T01:06:42.496Z,10.00
2023-04-15T01:09:11.960Z,10.00
2023-04-15T01:11:40.618Z,12.00
2023-04-15T01:14:11.028Z,10.00
2023-04-15T01:16:40.007Z,12.00
2023-04-15T01:19:10.835Z,12.00
2023-04-15T01:21:39.972Z,13.00
2023-04-15T01:24:10.595Z,12.00
2023-04-15T01:26:39.933Z,15.00
2023-04-15T01:29:09.735Z,12.67
2023-04-15T01:31:37.861Z,13.00
2023-04-15T01:34:06.466Z,11.50
2023-04-15T01:36:34.555Z,12.00
2023-04-15T01:39:02.807Z,10.50
2023-04-15T01:41:30.972Z,12.00
2023-04-15T01:46:27.065Z,11.00
2023-04-15T01:48:55.066Z,12.00
2023-04-15T01:51:23.319Z,9.00
2023-04-15T01:53:52.504Z,12.00
2023-04-15T01:56:20.404Z,12.00
2023-04-15T01:58:48.536Z,11.00
2023-04-15T02:01:19.771Z,11.50
2023-04-15T02:03:48.386Z,12.00
2023-04-15T02:06:16.701Z,11.50
2023-04-15T02:11:12.628Z,15.00
2023-04-15T02:13:40.782Z,15.00
2023-04-15T02:16:21.561Z,15.00
2023-04-15T02:18:49.569Z,12.00
2023-04-15T02:21:19.042Z,12.00
2023-04-15T02:23:48.410Z,14.00
2023-04-15T02:26:16.329Z,12.00
2023-04-15T02:28:44.230Z,10.00
2023-04-15T02:31:16.056Z,15.00
2023-04-15T02:33:44.055Z,16.00
2023-04-15T02:36:12.659Z,15.50
2023-04-15T02:38:42.453Z,12.50
2023-04-15T02:41:52.034Z,15.50
2023-04-15T02:44:20.703Z,16.00
2023-04-15T02:49:21.778Z,12.00
2023-04-15T02:51:49.997Z,11.00
2023-04-15T02:54:26.033Z,11.00
2023-04-15T02:56:55.463Z,10.00
2023-04-15T02:59:23.646Z,11.00
2023-04-15T03:01:51.791Z,7.50
2023-04-15T03:04:19.812Z,8.00
2023-04-15T03:06:48.011Z,8.00
2023-04-15T03:11:44.499Z,4.00
2023-04-15T03:14:12.464Z,5.00
2023-04-15T03:16:43.135Z,5.00
2023-04-15T03:19:11.036Z,6.00
2023-04-15T03:21:39.934Z,5.00
2023-04-15T03:24:07.841Z,3.50
2023-04-15T03:26:35.790Z,3.00
2023-04-15T03:29:08.887Z,3.00
2023-04-15T03:31:36.837Z,4.00
2023-04-15T03:36:35.670Z,5.00
2023-04-15T03:39:04.473Z,5.00
2023-04-15T03:41:33.149Z,4.00
2023-04-15T03:44:01.257Z,3.00
2023-04-15T03:46:29.273Z,3.00
2023-04-15T03:48:57.183Z,2.50
2023-04-15T03:51:25.105Z,4.00
2023-04-15T03:53:53.021Z,5.00
2023-04-15T03:56:21.080Z,4.00
2023-04-15T03:58:49.016Z,4.00
2023-04-15T04:01:16.979Z,4.00
2023-04-15T04:03:45.068Z,4.00
2023-04-15T04:06:13.152Z,3.00
2023-04-15T04:08:41.549Z,2.00
2023-04-15T04:11:09.721Z,3.00
2023-04-15T04:13:37.585Z,5.00
2023-04-15T04:16:05.886Z,8.50
2023-04-15T04:18:34.112Z,7.00
2023-04-15T04:21:02.314Z,8.50
2023-04-15T04:23:30.579Z,10.00
2023-04-15T04:25:58.527Z,8.00
2023-04-15T04:28:26.447Z,8.00
2023-04-15T04:30:54.510Z,5.00
2023-04-15T04:33:22.593Z,9.00
2023-04-15T04:35:50.614Z,7.00
2023-04-15T04:38:18.991Z,8.00
2023-04-15T04:40:46.940Z,9.00
2023-04-15T04:43:16.113Z,8.00
2023-04-15T04:45:44.068Z,9.00
2023-04-15T04:48:12.109Z,6.00
2023-04-15T04:50:40.082Z,2.00
2023-04-15T04:53:08.224Z,7.00
2023-04-15T04:55:38.879Z,7.00
2023-04-15T04:58:07.098Z,6.50
2023-04-15T05:00:35.164Z,6.00
2023-04-15T05:03:03.294Z,9.00
2023-04-15T05:05:31.576Z,11.00
2023-04-15T05:07:59.426Z,12.00
2023-04-15T05:10:27.402Z,11.00
2023-04-15T05:12:55.479Z,9.00
2023-04-15T05:15:23.402Z,9.00
2023-04-15T05:17:51.712Z,8.00
2023-04-15T05:20:20.057Z,9.00
2023-04-15T05:22:47.987Z,10.00
2023-04-15T05:25:16.580Z,12.00
2023-04-15T05:27:44.509Z,13.00
2023-04-15T05:30:13.847Z,14.00
2023-04-15T05:32:41.987Z,13.33
2023-04-15T05:35:09.897Z,14.00
2023-04-15T05:37:37.922Z,11.50
2023-04-15T05:40:06.437Z,10.00
2023-04-15T05:42:35.708Z,9.00
2023-04-15T05:45:09.249Z,9.50
2023-04-15T05:47:37.844Z,11.00
2023-04-15T05:50:06.809Z,9.00
2023-04-15T05:52:34.880Z,11.00
2023-04-15T05:55:02.969Z,8.00
2023-04-15T05:57:31.162Z,10.50
2023-04-15T05:59:59.127Z,9.00
2023-04-15T06:02:28.132Z,7.00
2023-04-15T06:04:56.106Z,11.00
2023-04-15T06:07:24.381Z,12.00
2023-04-15T06:09:52.334Z,11.50
2023-04-15T06:12:20.443Z,14.00
2023-04-15T06:14:48.869Z,12.00
2023-04-15T06:17:18.642Z,10.00
2023-04-15T06:19:47.045Z,11.00
2023-04-15T06:22:14.969Z,10.00
2023-04-15T06:24:43.014Z,10.50
2023-04-15T06:27:11.545Z,10.00
2023-04-15T06:29:39.728Z,11.00
2023-04-15T06:32:07.899Z,15.00
2023-04-15T06:34:35.858Z,13.00
2023-04-15T06:37:05.773Z,15.50
2023-04-15T06:39:34.545Z,12.00
2023-04-15T06:42:03.680Z,11.00
2023-04-15T06:44:33.798Z,11.00
2023-04-15T06:47:02.408Z,9.00
2023-04-15T06:49:30.306Z,12.50
2023-04-15T06:51:58.154Z,14.00
2023-04-15T06:54:26.707Z,12.00
2023-04-15T06:56:54.713Z,9.00
2023-04-15T06:59:22.581Z,6.00
2023-04-15T07:01:50.656Z,6.50
2023-04-15T07:04:18.796Z,8.00
2023-04-15T07:06:46.830Z,7.00
2023-04-15T07:09:15.489Z,6.50
2023-04-15T07:11:43.414Z,6.00
2023-04-15T07:14:11.730Z,6.00
2023-04-15T07:16:39.680Z,6.00
2023-04-15T07:19:07.541Z,6.00
2023-04-15T07:21:35.553Z,5.00
2023-04-15T07:24:03.378Z,6.00
2023-04-15T07:26:31.356Z,6.00
2023-04-15T07:28:59.511Z,4.00
2023-04-15T07:31:27.886Z,5.00
2023-04-15T07:33:55.836Z,5.50
2023-04-15T07:36:24.221Z,6.00
2023-04-15T07:38:52.730Z,5.00
2023-04-15T07:41:21.217Z,6.00
2023-04-15T07:43:49.151Z,6.00
2023-04-15T07:46:17.113Z,6.00
2023-04-15T07:48:45.005Z,6.50
2023-04-15T07:51:13.237Z,5.00
2023-04-15T07:53:41.144Z,4.00
2023-04-15T07:56:09.090Z,4.00
2023-04-15T07:58:37.433Z,4.00
2023-04-15T08:01:05.642Z,3.00
2023-04-15T08:03:33.895Z,3.00
2023-04-15T08:06:02.562Z,4.00
2023-04-15T08:08:30.648Z,4.00
2023-04-15T08:10:59.106Z,4.00
2023-04-15T08:13:27.530Z,3.00
2023-04-15T08:16:14.736Z,2.50
2023-04-15T08:18:42.700Z,3.00
2023-04-15T08:21:11.855Z,3.00
2023-04-15T08:23:40.125Z,6.00
2023-04-15T08:26:08.958Z,3.00
2023-04-15T08:28:39.728Z,5.33
2023-04-15T08:33:36.458Z,1.00
2023-04-15T08:36:04.891Z,3.00
2023-04-15T08:38:32.795Z,3.50
2023-04-15T08:41:07.498Z,2.00
2023-04-15T08:43:38.318Z,3.50
2023-04-15T08:46:06.513Z,4.00
2023-04-15T08:51:05.217Z,3.00
2023-04-15T08:53:33.791Z,3.00
2023-04-15T08:56:07.783Z,4.00
2023-04-15T08:58:37.222Z,3.00
2023-04-15T09:01:05.247Z,3.00
2023-04-15T09:03:33.749Z,3.00
2023-04-15T09:06:05.007Z,4.00
2023-04-15T09:08:34.775Z,3.00
2023-04-15T09:11:05.845Z,2.00
2023-04-15T09:13:33.947Z,2.67
2023-04-15T09:16:04.495Z,3.00
2023-04-15T09:18:34.804Z,5.00
2023-04-15T09:21:11.495Z,3.67
2023-04-15T09:23:41.986Z,2.00
2023-04-15T09:26:10.009Z,2.00
2023-04-15T09:28:44.040Z,3.00
2023-04-15T09:31:12.240Z,3.00
2023-04-15T09:33:57.152Z,2.00
2023-04-15T09:36:29.950Z,1.50
2023-04-15T09:38:59.579Z,2.00
2023-04-15T09:41:28.687Z,2.50
2023-04-15T09:43:56.749Z,2.00
2023-04-15T09:46:44.727Z,2.00
2023-04-15T09:49:13.595Z,2.00
2023-04-15T09:51:44.807Z,1.00
2023-04-15T09:54:22.497Z,1.00
2023-04-15T09:56:50.458Z,0.50
2023-04-15T09:59:20.126Z,1.00
2023-04-15T10:01:49.342Z,1.00
2023-04-15T10:04:18.236Z,1.50
2023-04-15T10:06:46.839Z,-0.50
2023-04-15T10:09:14.718Z,1.00
2023-04-15T10:11:43.211Z,1.00
2023-04-15T10:14:13.850Z,1.33
2023-04-15T10:16:49.044Z,0.50
2023-04-15T10:19:23.038Z,1.00
2023-04-15T10:21:52.410Z,1.50
2023-04-15T10:24:21.155Z,2.00
2023-04-15T10:26:50.055Z,1.00
2023-04-15T10:29:18.625Z,1.00
2023-04-15T10:31:47.245Z,0.50
2023-04-15T10:34:16.439Z,1.00
2023-04-15T10:36:44.431Z,1.00
2023-04-15T10:39:34.594Z,1.00
2023-04-15T10:42:20.264Z,1.00
2023-04-15T10:44:57.115Z,1.00
2023-04-15T10:47:25.693Z,1.00
2023-04-15T10:50:02.611Z,1.00
2023-04-15T10:52:30.627Z,1.00
2023-04-15T10:55:14.844Z,0.50
2023-04-15T10:57:45.347Z,1.50
2023-04-15T11:00:14.984Z,1.00
2023-04-15T11:03:14.109Z,1.00
2023-04-15T11:05:42.666Z,1.00
2023-04-15T11:08:12.392Z,0.00
2023-04-15T11:10:40.414Z,1.50
2023-04-15T11:13:11.420Z,2.00
2023-04-15T11:15:43.049Z,2.00
2023-04-15T11:18:11.018Z,2.00
2023-04-15T11:20:41.637Z,1.00
2023-04-15T11:23:14.024Z,3.50
2023-04-15T11:25:44.145Z,3.00
2023-04-15T11:28:13.558Z,2.00
2023-04-15T11:33:12.577Z,3.00
2023-04-15T11:35:44.215Z,3.00
2023-04-15T11:38:14.283Z,4.00
2023-04-15T11:40:46.197Z,3.00
2023-04-15T11:43:20.346Z,2.50
2023-04-15T11:45:56.997Z,4.50
2023-04-15T11:48:33.118Z,3.00
2023-04-15T11:51:06.586Z,4.00
2023-04-15T11:53:44.533Z,4.50
2023-04-15T11:56:19.691Z,4.00
2023-04-15T11:58:50.790Z,3.50
2023-04-15T12:01:19.526Z,2.00
2023-04-15T12:03:50.276Z,3.00
2023-04-15T12:06:19.720Z,3.00
2023-04-15T12:09:15.516Z,2.00
2023-04-15T12:11:44.984Z,3.00
2023-04-15T12:14:15.787Z,2.00
2023-04-15T12:16:51.812Z,2.00
2023-04-15T12:19:26.601Z,2.00
2023-04-15T12:22:02.142Z,1.00
2023-04-15T12:24:36.010Z,3.00
2023-04-15T12:27:06.214Z,2.00
2023-04-15T12:29:36.586Z,3.00
2023-04-15T12:32:15.914Z,2.00
2023-04-15T12:34:49.362Z,3.00
2023-04-15T12:37:17.879Z,2.00
2023-04-15T12:39:49.091Z,2.00
2023-04-15T12:42:18.624Z,3.00
2023-04-15T12:44:47.090Z,1.00
2023-04-15T12:47:15.091Z,2.00
2023-04-15T12:49:43.265Z,3.00
2023-04-15T12:52:11.332Z,1.00
2023-04-15T12:54:39.459Z,3.00
2023-04-15T12:57:07.869Z,4.00
2023-04-15T12:59:36.586Z,1.50
2023-04-15T13:02:04.761Z,2.50
2023-04-15T13:04:32.921Z,3.00
2023-04-15T13:07:02.252Z,0.00
2023-04-15T13:09:31.145Z,1.00
2023-04-15T13:11:59.437Z,2.50
2023-04-15T13:14:27.275Z,2.00
2023-04-15T13:16:55.222Z,3.00
2023-04-15T13:19:23.080Z,2.00
2023-04-15T13:21:51.297Z,3.00
2023-04-15T13:24:19.215Z,2.00
2023-04-15T13:26:48.586Z,2.50
2023-04-15T13:29:18.168Z,2.00
2023-04-15T13:31:46.350Z,2.00
2023-04-15T13:34:14.361Z,2.00
2023-04-15T13:36:42.240Z,1.00
2023-04-15T13:39:10.126Z,2.50
2023-04-15T13:41:38.169Z,2.00
2023-04-15T13:44:06.606Z,2.00
2023-04-15T13:46:35.094Z,2.00
2023-04-15T13:49:03.138Z,3.00
2023-04-15T13:51:32.228Z,1.00
2023-04-15T13:54:00.189Z,2.00
2023-04-15T13:56:28.999Z,2.00
2023-04-15T13:59:02.409Z,1.50
2023-04-15T14:01:30.387Z,1.00
2023-04-15T14:03:58.448Z,1.00
2023-04-15T14:06:35.915Z,1.00
2023-04-15T14:09:21.079Z,0.50
2023-04-15T14:12:03.177Z,1.00
2023-04-15T14:14:31.258Z,2.00
2023-04-15T14:16:59.336Z,2.00
2023-04-15T14:19:27.415Z,2.00
2023-04-15T14:21:55.534Z,1.00
2023-04-15T14:24:23.629Z,0.67
2023-04-15T14:26:51.834Z,2.00
2023-04-15T14:29:20.281Z,1.00
2023-04-15T14:32:04.147Z,2.00
2023-04-15T14:34:38.152Z,1.00
2023-04-15T14:37:06.405Z,2.00
2023-04-15T14:39:34.751Z,3.00
2023-04-15T14:42:02.714Z,3.00
2023-04-15T14:46:59.697Z,3.00
2023-04-15T14:49:27.869Z,3.00
2023-04-15T14:51:55.768Z,3.50
2023-04-15T14:54:23.616Z,4.00
2023-04-15T14:56:51.613Z,3.00
2023-04-15T14:59:19.482Z,3.00
2023-04-15T15:01:47.590Z,3.00
2023-04-15T15:04:15.917Z,2.00
2023-04-15T15:06:43.945Z,3.00
2023-04-15T15:09:11.791Z,2.50
2023-04-15T15:11:39.746Z,3.00
2023-04-15T15:14:07.667Z,2.00
2023-04-15T15:16:35.837Z,2.00
2023-04-15T15:19:04.504Z,3.00
2023-04-15T15:21:32.699Z,3.00
2023-04-15T15:24:00.630Z,2.00
2023-04-15T15:26:28.994Z,2.00
2023-04-15T15:28:57.085Z,2.00
2023-04-15T15:31:25.149Z,2.50
2023-04-15T15:33:53.307Z,1.00
2023-04-15T15:36:21.296Z,3.50
2023-04-15T15:38:49.268Z,3.00
2023-04-15T15:41:17.170Z,2.00
2023-04-15T15:43:45.056Z,2.00
2023-04-15T15:46:13.120Z,2.50
2023-04-15T15:48:41.065Z,2.00
2023-04-15T15:51:08.930Z,3.00
2023-04-15T15:53:37.089Z,2.00
2023-04-15T15:56:05.516Z,1.50
2023-04-15T15:58:33.821Z,1.00
2023-04-15T16:01:02.022Z,2.00
2023-04-15T16:03:30.225Z,3.00
2023-04-15T16:05:58.237Z,2.00
2023-04-15T16:08:26.677Z,2.00
2023-04-15T16:10:54.991Z,2.00
2023-04-15T16:13:23.106Z,2.00
2023-04-15T16:15:51.155Z,2.00
2023-04-15T16:18:19.140Z,2.00
2023-04-15T16:20:47.207Z,2.00
2023-04-15T16:23:17.244Z,1.00
2023-04-15T16:25:45.812Z,1.00
2023-04-15T16:28:25.558Z,1.50
2023-04-15T16:30:55.606Z,2.00
2023-04-15T16:33:23.509Z,2.00
2023-04-15T16:35:51.711Z,3.00
2023-04-15T16:38:19.675Z,3.00
2023-04-15T16:40:47.614Z,3.00
2023-04-15T16:43:15.587Z,2.00
2023-04-15T16:45:45.618Z,4.00
2023-04-15T16:48:13.731Z,3.00
2023-04-15T16:50:41.644Z,2.00
2023-04-15T16:53:09.856Z,3.00
2023-04-15T16:55:37.889Z,3.00
2023-04-15T16:58:07.969Z,3.00
2023-04-15T17:00:37.074Z,3.00
2023-04-15T17:03:06.152Z,3.00
2023-04-15T17:05:34.552Z,1.00
2023-04-15T17:08:02.695Z,3.00
2023-04-15T17:10:31.354Z,5.50
2023-04-15T17:13:00.059Z,8.00
2023-04-15T17:15:28.086Z,12.00
2023-04-15T17:17:56.241Z,10.00
2023-04-15T17:20:24.384Z,13.00
2023-04-15T17:22:52.460Z,10.50
2023-04-15T17:25:21.032Z,11.50
2023-04-15T17:27:49.291Z,10.00
2023-04-15T17:30:17.269Z,9.00
2023-04-15T17:32:45.390Z,10.50
2023-04-15T17:35:13.519Z,8.00
2023-04-15T17:37:41.516Z,14.00
2023-04-15T17:40:09.912Z,12.00
2023-04-15T17:42:38.012Z,12.00
2023-04-15T17:45:06.581Z,8.67
2023-04-15T17:47:34.933Z,10.50
2023-04-15T17:50:03.104Z,10.00
2023-04-15T17:52:31.256Z,6.00
2023-04-15T17:54:59.546Z,7.00
2023-04-15T17:57:27.686Z,8.00
2023-04-15T17:59:55.844Z,6.00
2023-04-15T18:02:24.074Z,11.00
2023-04-15T18:04:52.694Z,9.00
2023-04-15T18:07:21.017Z,7.00
2023-04-15T18:09:50.799Z,8.00
2023-04-15T18:12:18.867Z,7.00
2023-04-15T18:14:46.816Z,9.00
2023-04-15T18:17:15.144Z,6.50
2023-04-15T18:19:43.627Z,11.00
2023-04-15T18:22:12.109Z,9.00
2023-04-15T18:24:40.553Z,6.67
2023-04-15T18:27:08.748Z,4.00
2023-04-15T18:29:36.797Z,5.00
2023-04-15T18:32:05.112Z,8.00
2023-04-15T18:34:33.188Z,9.00
2023-04-15T18:37:01.508Z,7.00
2023-04-15T18:39:29.493Z,6.00
2023-04-15T18:41:57.686Z,6.00
2023-04-15T18:44:25.766Z,5.00
2023-04-15T18:46:54.363Z,5.00
2023-04-15T18:49:22.356Z,5.50
2023-04-15T18:51:50.642Z,6.00
2023-04-15T18:54:18.507Z,7.00
2023-04-15T18:56:46.837Z,4.33
2023-04-15T18:59:28.792Z,5.00
2023-04-15T19:02:00.288Z,6.00
2023-04-15T19:04:31.028Z,5.00
2023-04-15T19:06:59.346Z,3.00
2023-04-15T19:09:29.036Z,6.33
2023-04-15T19:11:57.776Z,8.00
2023-04-15T19:14:26.213Z,9.50
2023-04-15T19:16:54.280Z,14.00
2023-04-15T19:19:22.311Z,16.50
2023-04-15T19:21:50.777Z,16.00
2023-04-15T19:24:19.930Z,18.00
2023-04-15T19:26:50.480Z,18.00
2023-04-15T19:29:18.824Z,14.00
2023-04-15T19:31:46.882Z,12.00
2023-04-15T19:34:14.800Z,11.00
2023-04-15T19:36:42.978Z,11.00
2023-04-15T19:39:11.236Z,11.00
2023-04-15T19:41:39.399Z,11.50
2023-04-15T19:44:07.388Z,11.00
2023-04-15T19:46:35.802Z,10.00
2023-04-15T19:49:04.238Z,15.00
2023-04-15T19:51:37.623Z,14.00
2023-04-15T19:54:06.085Z,15.00
2023-04-15T19:56:34.549Z,13.00
2023-04-15T19:59:02.816Z,13.00
2023-04-15T20:01:31.096Z,15.00
2023-04-15T20:03:59.758Z,10.00
2023-04-15T20:06:28.525Z,13.50
2023-04-15T20:08:56.477Z,17.50
2023-04-15T20:12:05.677Z,19.00
2023-04-15T20:14:17.880Z,18.00
2023-04-15T20:16:45.853Z,17.00
2023-04-15T20:19:13.975Z,16.50
2023-04-15T20:21:45.997Z,18.00
2023-04-15T20:24:13.845Z,18.00
2023-04-15T20:26:41.892Z,14.50
2023-04-15T20:29:09.744Z,15.67
2023-04-15T20:31:37.889Z,14.00
2023-04-15T20:34:06.002Z,13.00
2023-04-15T20:36:34.016Z,15.00
2023-04-15T20:39:01.916Z,11.00
2023-04-15T20:41:29.946Z,13.00
2023-04-15T20:43:57.947Z,15.00
2023-04-15T20:46:27.603Z,10.00
2023-04-15T20:48:56.332Z,11.67
2023-04-15T20:51:24.301Z,10.00
2023-04-15T20:56:20.453Z,14.00
2023-04-15T20:58:48.379Z,14.00
2023-04-15T21:01:16.353Z,17.00
2023-04-15T21:03:44.364Z,15.00
2023-04-15T21:06:12.465Z,16.00
2023-04-15T21:08:40.511Z,14.00
2023-04-15T21:11:08.516Z,14.00
2023-04-15T21:13:36.351Z,13.00
2023-04-15T21:16:04.452Z,14.00
2023-04-15T21:18:32.329Z,15.00
2023-04-15T21:21:02.063Z,16.00
2023-04-15T21:23:30.739Z,14.00
2023-04-15T21:25:58.910Z,16.00
2023-04-15T21:28:28.147Z,18.00
2023-04-15T21:30:59.570Z,18.00
2023-04-15T21:33:27.548Z,17.00
2023-04-15T21:35:55.454Z,19.00
2023-04-15T21:38:23.599Z,21.00
2023-04-15T21:40:51.693Z,22.00
2023-04-15T21:43:21.757Z,20.00
2023-04-15T21:46:20.698Z,22.00
2023-04-15T21:48:37.655Z,22.00
2023-04-15T21:51:06.041Z,22.00
2023-04-15T21:53:34.185Z,21.00
2023-04-15T21:56:02.120Z,19.00
2023-04-15T21:58:29.989Z,23.00
2023-04-15T22:01:00.192Z,22.00
2023-04-15T22:03:34.407Z,22.33
2023-04-15T22:06:04.363Z,20.00
2023-04-15T22:08:38.671Z,20.50
2023-04-15T22:11:26.422Z,23.00
2023-04-15T22:13:54.845Z,21.50
2023-04-15T22:16:23.178Z,20.00
2023-04-15T22:18:51.444Z,21.33
2023-04-15T22:21:19.362Z,18.50
2023-04-15T22:23:48.476Z,20.00
2023-04-15T22:26:16.425Z,18.00
2023-04-15T22:28:44.451Z,19.00
2023-04-15T22:31:12.511Z,22.00
2023-04-15T22:33:40.738Z,24.50
2023-04-15T22:36:08.848Z,22.00
2023-04-15T22:38:36.703Z,23.00
2023-04-15T22:41:04.715Z,22.00
2023-04-15T22:43:32.615Z,22.00
2023-04-15T22:46:01.227Z,23.00
2023-04-15T22:48:29.106Z,26.00
2023-04-15T22:50:57.148Z,25.00
2023-04-15T22:53:25.100Z,24.00
2023-04-15T22:55:54.116Z,27.00
2023-04-15T22:58:22.078Z,25.00
2023-04-15T23:00:50.415Z,27.00
2023-04-15T23:03:18.470Z,26.50
2023-04-15T23:05:47.055Z,27.00
2023-04-15T23:08:15.581Z,26.00
2023-04-15T23:10:44.762Z,26.00
2023-04-15T23:13:12.681Z,25.50
2023-04-15T23:15:40.680Z,27.50
2023-04-15T23:18:08.677Z,31.00
2023-04-15T23:20:36.691Z,22.00
2023-04-15T23:23:04.583Z,24.00
2023-04-15T23:25:32.629Z,25.00
2023-04-15T23:28:01.081Z,27.00
2023-04-15T23:30:29.100Z,26.00
2023-04-15T23:32:58.342Z,23.50
2023-04-15T23:35:27.366Z,27.00
2023-04-15T23:37:55.329Z,24.00
2023-04-15T23:40:23.160Z,24.00
2023-04-15T23:42:51.859Z,22.00
2023-04-15T23:45:19.914Z,23.00
2023-04-15T23:47:47.925Z,24.00
2023-04-15T23:50:16.148Z,23.00
2023-04-15T23:52:44.129Z,24.00
2023-04-15T23:55:12.121Z,22.00
2023-04-15T23:57:41.277Z,22.00
